Terminal Aerodrome Forecast
Issued by NWS

Home | Current Version | Previous Version | Text Only | Print | Product List | Glossary On
Versions: 1 2 3 4 5 6 7 8 9 10 11 12 13 14
000
FTUS43 KEAX 010500
TAFSTJ
TAF
KSTJ 010528Z 0106/0206 00000KT P6SM BKN100
     FM010700 16005KT P6SM VCSH BKN090
     FM011100 VRB05KT P6SM FEW100
     FM011600 15007KT P6SM SCT100=

USA.gov is the U.S. government's official web portal to all federal, state and local government web resources and services.